sensor_id;sensor_type;location;lat;lon;timestamp;P1;durP1;ratioP1;P2;durP2;ratioP2
9940;SDS011;5009;50.656;7.188;2022-12-07T05:02:48;23.00;;;18.00;;
9940;SDS011;5009;50.656;7.188;2022-12-07T05:05:14;20.77;;;18.37;;
9940;SDS011;5009;50.656;7.188;2022-12-07T05:07:39;20.63;;;17.47;;
9940;SDS011;5009;50.656;7.188;2022-12-07T05:10:05;21.37;;;17.90;;
9940;SDS011;5009;50.656;7.188;2022-12-07T05:12:55;22.07;;;19.40;;
9940;SDS011;5009;50.656;7.188;2022-12-07T05:15:21;22.53;;;19.07;;
9940;SDS011;5009;50.656;7.188;2022-12-07T05:17:46;21.70;;;18.93;;
9940;SDS011;5009;50.656;7.188;2022-12-07T05:20:12;20.03;;;17.93;;
9940;SDS011;5009;50.656;7.188;2022-12-07T05:22:38;20.63;;;18.37;;
9940;SDS011;5009;50.656;7.188;2022-12-07T05:25:03;20.07;;;17.87;;
9940;SDS011;5009;50.656;7.188;2022-12-07T05:27:29;20.33;;;18.10;;
9940;SDS011;5009;50.656;7.188;2022-12-07T05:29:55;23.17;;;17.97;;
9940;SDS011;5009;50.656;7.188;2022-12-07T05:32:20;21.20;;;18.60;;
9940;SDS011;5009;50.656;7.188;2022-12-07T05:34:46;21.27;;;17.97;;
9940;SDS011;5009;50.656;7.188;2022-12-07T05:37:11;20.10;;;17.17;;
9940;SDS011;5009;50.656;7.188;2022-12-07T05:39:37;21.30;;;18.33;;
9940;SDS011;5009;50.656;7.188;2022-12-07T05:42:05;21.77;;;18.13;;
9940;SDS011;5009;50.656;7.188;2022-12-07T05:44:37;19.67;;;17.53;;
9940;SDS011;5009;50.656;7.188;2022-12-07T05:47:06;20.70;;;18.23;;
9940;SDS011;5009;50.656;7.188;2022-12-07T05:49:32;22.00;;;18.93;;
9940;SDS011;5009;50.656;7.188;2022-12-07T05:51:57;22.30;;;18.00;;
9940;SDS011;5009;50.656;7.188;2022-12-07T05:54:23;22.00;;;18.10;;
9940;SDS011;5009;50.656;7.188;2022-12-07T05:56:49;21.77;;;18.73;;
9940;SDS011;5009;50.656;7.188;2022-12-07T05:59:15;22.97;;;19.47;;
9940;SDS011;5009;50.656;7.188;2022-12-07T06:01:57;21.00;;;18.40;;
9940;SDS011;5009;50.656;7.188;2022-12-07T06:04:28;21.97;;;19.57;;
9940;SDS011;5009;50.656;7.188;2022-12-07T06:06:55;20.63;;;18.17;;
9940;SDS011;5009;50.656;7.188;2022-12-07T06:09:22;22.20;;;19.63;;
9940;SDS011;5009;50.656;7.188;2022-12-07T06:11:48;22.77;;;18.77;;
9940;SDS011;5009;50.656;7.188;2022-12-07T06:14:32;23.23;;;18.70;;
9940;SDS011;5009;50.656;7.188;2022-12-07T06:16:58;20.87;;;18.63;;
9940;SDS011;5009;50.656;7.188;2022-12-07T06:19:24;21.60;;;19.07;;
9940;SDS011;5009;50.656;7.188;2022-12-07T06:21:50;20.13;;;17.80;;
9940;SDS011;5009;50.656;7.188;2022-12-07T06:24:16;22.23;;;18.13;;
9940;SDS011;5009;50.656;7.188;2022-12-07T06:26:42;20.37;;;17.23;;
9940;SDS011;5009;50.656;7.188;2022-12-07T06:29:08;21.67;;;18.57;;
9940;SDS011;5009;50.656;7.188;2022-12-07T06:31:34;20.63;;;17.70;;
9940;SDS011;5009;50.656;7.188;2022-12-07T06:34:01;20.87;;;18.07;;
9940;SDS011;5009;50.656;7.188;2022-12-07T06:36:28;22.50;;;17.83;;
9940;SDS011;5009;50.656;7.188;2022-12-07T06:38:54;21.17;;;17.27;;
9940;SDS011;5009;50.656;7.188;2022-12-07T06:41:20;19.53;;;16.77;;
9940;SDS011;5009;50.656;7.188;2022-12-07T06:43:46;22.30;;;16.97;;
9940;SDS011;5009;50.656;7.188;2022-12-07T06:46:13;18.60;;;15.63;;
9940;SDS011;5009;50.656;7.188;2022-12-07T06:48:39;16.93;;;14.90;;
9940;SDS011;5009;50.656;7.188;2022-12-07T06:51:05;18.33;;;15.60;;
9940;SDS011;5009;50.656;7.188;2022-12-07T06:53:31;20.63;;;15.30;;
9940;SDS011;5009;50.656;7.188;2022-12-07T06:55:56;16.70;;;14.27;;
9940;SDS011;5009;50.656;7.188;2022-12-07T06:58:22;17.60;;;13.30;;
9940;SDS011;5009;50.656;7.188;2022-12-07T07:00:48;16.73;;;12.63;;
9940;SDS011;5009;50.656;7.188;2022-12-07T07:03:15;15.30;;;12.93;;
9940;SDS011;5009;50.656;7.188;2022-12-07T07:05:41;15.17;;;13.20;;
9940;SDS011;5009;50.656;7.188;2022-12-07T07:08:07;21.53;;;14.20;;
9940;SDS011;5009;50.656;7.188;2022-12-07T07:10:33;17.30;;;14.40;;
9940;SDS011;5009;50.656;7.188;2022-12-07T07:12:59;17.33;;;15.43;;
9940;SDS011;5009;50.656;7.188;2022-12-07T07:15:24;19.47;;;16.20;;
9940;SDS011;5009;50.656;7.188;2022-12-07T07:17:50;20.93;;;17.00;;
9940;SDS011;5009;50.656;7.188;2022-12-07T07:20:16;17.73;;;15.70;;
9940;SDS011;5009;50.656;7.188;2022-12-07T07:22:41;21.53;;;15.70;;
9940;SDS011;5009;50.656;7.188;2022-12-07T07:25:07;20.17;;;16.03;;
9940;SDS011;5009;50.656;7.188;2022-12-07T07:27:32;18.77;;;16.20;;
9940;SDS011;5009;50.656;7.188;2022-12-07T07:29:58;19.93;;;16.77;;
9940;SDS011;5009;50.656;7.188;2022-12-07T07:32:24;24.00;;;18.60;;
9940;SDS011;5009;50.656;7.188;2022-12-07T07:34:49;20.67;;;16.13;;
9940;SDS011;5009;50.656;7.188;2022-12-07T07:37:15;21.70;;;16.43;;
9940;SDS011;5009;50.656;7.188;2022-12-07T07:39:40;18.37;;;16.13;;
9940;SDS011;5009;50.656;7.188;2022-12-07T07:42:06;20.23;;;15.90;;
9940;SDS011;5009;50.656;7.188;2022-12-07T07:44:32;21.07;;;15.30;;
9940;SDS011;5009;50.656;7.188;2022-12-07T07:46:58;18.30;;;15.10;;
9940;SDS011;5009;50.656;7.188;2022-12-07T07:49:25;20.07;;;15.83;;
9940;SDS011;5009;50.656;7.188;2022-12-07T07:51:51;18.60;;;15.63;;
9940;SDS011;5009;50.656;7.188;2022-12-07T07:54:16;22.23;;;15.50;;
9940;SDS011;5009;50.656;7.188;2022-12-07T07:56:42;19.30;;;14.67;;
9940;SDS011;5009;50.656;7.188;2022-12-07T07:59:07;20.03;;;15.87;;
9940;SDS011;5009;50.656;7.188;2022-12-07T08:01:33;19.33;;;15.43;;
9940;SDS011;5009;50.656;7.188;2022-12-07T08:03:59;19.20;;;15.60;;
9940;SDS011;5009;50.656;7.188;2022-12-07T08:06:24;16.00;;;13.87;;
9940;SDS011;5009;50.656;7.188;2022-12-07T08:08:50;21.13;;;14.10;;
9940;SDS011;5009;50.656;7.188;2022-12-07T08:11:16;16.80;;;13.27;;
9940;SDS011;5009;50.656;7.188;2022-12-07T08:13:44;18.20;;;13.80;;
9940;SDS011;5009;50.656;7.188;2022-12-07T08:16:11;16.27;;;12.67;;
9940;SDS011;5009;50.656;7.188;2022-12-07T08:18:37;18.30;;;13.77;;
9940;SDS011;5009;50.656;7.188;2022-12-07T08:21:05;15.00;;;13.40;;
9940;SDS011;5009;50.656;7.188;2022-12-07T08:23:31;14.73;;;12.90;;
9940;SDS011;5009;50.656;7.188;2022-12-07T08:26:01;16.77;;;13.40;;
9940;SDS011;5009;50.656;7.188;2022-12-07T08:28:28;16.27;;;12.53;;
9940;SDS011;5009;50.656;7.188;2022-12-07T08:31:00;14.53;;;12.63;;
9940;SDS011;5009;50.656;7.188;2022-12-07T08:33:35;13.93;;;12.40;;
9940;SDS011;5009;50.656;7.188;2022-12-07T08:36:01;18.67;;;13.80;;
9940;SDS011;5009;50.656;7.188;2022-12-07T08:38:28;18.17;;;14.60;;
9940;SDS011;5009;50.656;7.188;2022-12-07T08:40:54;16.23;;;13.60;;
9940;SDS011;5009;50.656;7.188;2022-12-07T08:43:23;17.40;;;14.50;;
9940;SDS011;5009;50.656;7.188;2022-12-07T08:48:58;16.20;;;13.70;;
9940;SDS011;5009;50.656;7.188;2022-12-07T08:51:29;19.47;;;13.73;;
9940;SDS011;5009;50.656;7.188;2022-12-07T08:53:55;23.93;;;15.10;;
9940;SDS011;5009;50.656;7.188;2022-12-07T08:56:23;21.03;;;14.37;;
9940;SDS011;5009;50.656;7.188;2022-12-07T08:58:49;26.37;;;14.47;;
9940;SDS011;5009;50.656;7.188;2022-12-07T09:01:15;22.40;;;15.80;;
9940;SDS011;5009;50.656;7.188;2022-12-07T09:03:40;17.07;;;14.50;;
9940;SDS011;5009;50.656;7.188;2022-12-07T09:06:06;19.93;;;14.10;;
9940;SDS011;5009;50.656;7.188;2022-12-07T09:08:34;17.70;;;14.10;;
9940;SDS011;5009;50.656;7.188;2022-12-07T09:11:03;17.83;;;13.77;;
9940;SDS011;5009;50.656;7.188;2022-12-07T09:13:28;23.80;;;16.20;;
9940;SDS011;5009;50.656;7.188;2022-12-07T09:15:54;19.93;;;15.43;;
9940;SDS011;5009;50.656;7.188;2022-12-07T09:18:20;21.43;;;15.63;;
9940;SDS011;5009;50.656;7.188;2022-12-07T09:20:46;16.90;;;14.90;;
9940;SDS011;5009;50.656;7.188;2022-12-07T09:23:12;18.13;;;15.30;;
9940;SDS011;5009;50.656;7.188;2022-12-07T09:25:37;17.37;;;15.57;;
9940;SDS011;5009;50.656;7.188;2022-12-07T09:28:04;18.20;;;15.37;;
9940;SDS011;5009;50.656;7.188;2022-12-07T09:30:30;19.80;;;15.50;;
9940;SDS011;5009;50.656;7.188;2022-12-07T09:32:56;18.10;;;15.47;;
9940;SDS011;5009;50.656;7.188;2022-12-07T09:35:22;22.87;;;16.53;;
9940;SDS011;5009;50.656;7.188;2022-12-07T09:37:50;15.53;;;12.33;;
9940;SDS011;5009;50.656;7.188;2022-12-07T09:40:16;14.57;;;11.23;;
9940;SDS011;5009;50.656;7.188;2022-12-07T09:42:46;13.17;;;10.93;;
9940;SDS011;5009;50.656;7.188;2022-12-07T09:45:16;18.93;;;14.00;;
9940;SDS011;5009;50.656;7.188;2022-12-07T09:47:44;18.87;;;13.30;;
9940;SDS011;5009;50.656;7.188;2022-12-07T09:50:14;16.97;;;13.73;;
9940;SDS011;5009;50.656;7.188;2022-12-07T09:52:43;15.17;;;11.10;;
9940;SDS011;5009;50.656;7.188;2022-12-07T09:55:21;13.07;;;10.67;;
9940;SDS011;5009;50.656;7.188;2022-12-07T09:57:53;13.77;;;10.50;;
9940;SDS011;5009;50.656;7.188;2022-12-07T10:00:20;15.67;;;10.83;;
9940;SDS011;5009;50.656;7.188;2022-12-07T10:02:50;12.63;;;10.97;;
9940;SDS011;5009;50.656;7.188;2022-12-07T10:05:27;14.10;;;9.80;;
9940;SDS011;5009;50.656;7.188;2022-12-07T10:08:03;16.20;;;10.40;;
9940;SDS011;5009;50.656;7.188;2022-12-07T10:10:31;14.37;;;10.43;;
9940;SDS011;5009;50.656;7.188;2022-12-07T10:23:42;11.73;;;8.83;;
9940;SDS011;5009;50.656;7.188;2022-12-07T10:29:01;11.43;;;9.80;;
9940;SDS011;5009;50.656;7.188;2022-12-07T10:31:38;11.03;;;8.50;;
9940;SDS011;5009;50.656;7.188;2022-12-07T10:34:24;9.80;;;7.67;;
9940;SDS011;5009;50.656;7.188;2022-12-07T10:39:52;9.43;;;7.73;;
9940;SDS011;5009;50.656;7.188;2022-12-07T10:42:22;12.07;;;7.47;;
9940;SDS011;5009;50.656;7.188;2022-12-07T10:53:50;9.77;;;6.13;;
9940;SDS011;5009;50.656;7.188;2022-12-07T10:56:36;9.90;;;6.83;;
9940;SDS011;5009;50.656;7.188;2022-12-07T11:02:00;9.20;;;6.37;;
9940;SDS011;5009;50.656;7.188;2022-12-07T11:07:38;7.43;;;6.17;;
9940;SDS011;5009;50.656;7.188;2022-12-07T11:18:28;10.13;;;6.40;;
9940;SDS011;5009;50.656;7.188;2022-12-07T11:21:07;10.80;;;6.70;;
9940;SDS011;5009;50.656;7.188;2022-12-07T11:24:01;9.37;;;6.33;;
9940;SDS011;5009;50.656;7.188;2022-12-07T11:38:16;9.23;;;6.23;;
9940;SDS011;5009;50.656;7.188;2022-12-07T11:40:51;8.10;;;5.40;;
9940;SDS011;5009;50.656;7.188;2022-12-07T11:43:37;8.17;;;4.53;;
9940;SDS011;5009;50.656;7.188;2022-12-07T11:46:12;8.37;;;4.67;;
9940;SDS011;5009;50.656;7.188;2022-12-07T11:51:15;7.50;;;4.90;;
9940;SDS011;5009;50.656;7.188;2022-12-07T11:53:49;6.67;;;4.50;;
9940;SDS011;5009;50.656;7.188;2022-12-07T11:56:20;8.43;;;4.20;;
9940;SDS011;5009;50.656;7.188;2022-12-07T12:06:33;6.73;;;3.80;;
9940;SDS011;5009;50.656;7.188;2022-12-07T12:11:49;8.57;;;4.27;;
9940;SDS011;5009;50.656;7.188;2022-12-07T12:25:27;6.40;;;3.37;;
9940;SDS011;5009;50.656;7.188;2022-12-07T12:27:57;8.73;;;3.87;;
9940;SDS011;5009;50.656;7.188;2022-12-07T12:30:26;8.93;;;3.83;;
9940;SDS011;5009;50.656;7.188;2022-12-07T12:32:54;7.10;;;4.03;;
9940;SDS011;5009;50.656;7.188;2022-12-07T12:35:48;6.17;;;3.80;;
9940;SDS011;5009;50.656;7.188;2022-12-07T12:39:16;8.47;;;3.70;;
9940;SDS011;5009;50.656;7.188;2022-12-07T12:54:28;8.03;;;3.93;;
9940;SDS011;5009;50.656;7.188;2022-12-07T13:15:43;7.27;;;5.27;;
9940;SDS011;5009;50.656;7.188;2022-12-07T13:28:43;10.43;;;5.53;;
9940;SDS011;5009;50.656;7.188;2022-12-07T13:33:57;7.27;;;5.40;;
9940;SDS011;5009;50.656;7.188;2022-12-07T13:36:27;8.67;;;5.43;;
9940;SDS011;5009;50.656;7.188;2022-12-07T13:41:47;7.23;;;4.50;;
9940;SDS011;5009;50.656;7.188;2022-12-07T13:44:22;5.37;;;3.93;;
9940;SDS011;5009;50.656;7.188;2022-12-07T13:46:50;4.90;;;2.90;;
9940;SDS011;5009;50.656;7.188;2022-12-07T13:49:30;7.27;;;2.90;;
9940;SDS011;5009;50.656;7.188;2022-12-07T13:55:01;7.47;;;4.13;;
9940;SDS011;5009;50.656;7.188;2022-12-07T13:57:47;4.90;;;3.97;;
9940;SDS011;5009;50.656;7.188;2022-12-07T14:00:25;7.37;;;4.77;;
9940;SDS011;5009;50.656;7.188;2022-12-07T14:03:00;6.30;;;4.57;;
9940;SDS011;5009;50.656;7.188;2022-12-07T14:05:31;5.73;;;4.53;;
9940;SDS011;5009;50.656;7.188;2022-12-07T14:08:31;7.30;;;5.60;;
9940;SDS011;5009;50.656;7.188;2022-12-07T14:15:59;8.50;;;5.43;;
9940;SDS011;5009;50.656;7.188;2022-12-07T14:18:29;9.63;;;5.70;;
9940;SDS011;5009;50.656;7.188;2022-12-07T14:23:36;8.37;;;5.37;;
9940;SDS011;5009;50.656;7.188;2022-12-07T14:26:15;12.63;;;6.43;;
9940;SDS011;5009;50.656;7.188;2022-12-07T14:28:45;8.87;;;6.10;;
9940;SDS011;5009;50.656;7.188;2022-12-07T14:31:13;10.50;;;5.87;;
9940;SDS011;5009;50.656;7.188;2022-12-07T14:33:40;11.23;;;5.83;;
9940;SDS011;5009;50.656;7.188;2022-12-07T14:36:08;8.67;;;5.00;;
9940;SDS011;5009;50.656;7.188;2022-12-07T14:38:34;7.80;;;4.90;;
9940;SDS011;5009;50.656;7.188;2022-12-07T14:40:59;9.27;;;4.60;;
9940;SDS011;5009;50.656;7.188;2022-12-07T14:43:44;9.50;;;4.60;;
9940;SDS011;5009;50.656;7.188;2022-12-07T14:46:09;5.93;;;4.33;;
9940;SDS011;5009;50.656;7.188;2022-12-07T14:48:35;8.00;;;4.37;;
9940;SDS011;5009;50.656;7.188;2022-12-07T14:51:00;5.77;;;3.47;;
9940;SDS011;5009;50.656;7.188;2022-12-07T14:53:28;4.60;;;2.80;;
9940;SDS011;5009;50.656;7.188;2022-12-07T14:55:58;4.23;;;2.30;;
9940;SDS011;5009;50.656;7.188;2022-12-07T14:58:24;4.43;;;2.80;;
9940;SDS011;5009;50.656;7.188;2022-12-07T15:00:49;3.33;;;2.33;;
9940;SDS011;5009;50.656;7.188;2022-12-07T15:03:15;3.90;;;2.80;;
9940;SDS011;5009;50.656;7.188;2022-12-07T15:05:40;2.50;;;2.23;;
9940;SDS011;5009;50.656;7.188;2022-12-07T15:08:08;4.90;;;2.70;;
9940;SDS011;5009;50.656;7.188;2022-12-07T15:10:35;3.10;;;2.80;;
9940;SDS011;5009;50.656;7.188;2022-12-07T15:13:03;3.00;;;2.70;;
9940;SDS011;5009;50.656;7.188;2022-12-07T15:15:48;4.27;;;2.80;;
9940;SDS011;5009;50.656;7.188;2022-12-07T15:18:15;4.53;;;3.27;;
9940;SDS011;5009;50.656;7.188;2022-12-07T15:20:41;5.03;;;3.20;;
9940;SDS011;5009;50.656;7.188;2022-12-07T15:23:07;3.40;;;3.03;;
9940;SDS011;5009;50.656;7.188;2022-12-07T15:25:33;4.23;;;3.60;;
9940;SDS011;5009;50.656;7.188;2022-12-07T15:27:59;4.83;;;3.53;;
9940;SDS011;5009;50.656;7.188;2022-12-07T15:30:24;4.47;;;4.03;;
9940;SDS011;5009;50.656;7.188;2022-12-07T15:32:50;10.07;;;5.60;;
9940;SDS011;5009;50.656;7.188;2022-12-07T15:35:16;7.97;;;6.63;;
9940;SDS011;5009;50.656;7.188;2022-12-07T15:37:42;8.87;;;6.60;;
9940;SDS011;5009;50.656;7.188;2022-12-07T15:40:08;6.47;;;5.77;;
9940;SDS011;5009;50.656;7.188;2022-12-07T15:42:35;7.10;;;5.17;;
9940;SDS011;5009;50.656;7.188;2022-12-07T15:45:01;9.80;;;5.00;;
9940;SDS011;5009;50.656;7.188;2022-12-07T15:47:31;8.23;;;5.00;;
9940;SDS011;5009;50.656;7.188;2022-12-07T15:49:58;6.13;;;4.93;;
9940;SDS011;5009;50.656;7.188;2022-12-07T15:52:24;6.53;;;5.80;;
9940;SDS011;5009;50.656;7.188;2022-12-07T15:54:49;6.90;;;5.67;;
9940;SDS011;5009;50.656;7.188;2022-12-07T15:57:15;8.90;;;5.90;;
9940;SDS011;5009;50.656;7.188;2022-12-07T15:59:41;7.03;;;5.37;;
9940;SDS011;5009;50.656;7.188;2022-12-07T16:02:07;6.50;;;4.30;;
9940;SDS011;5009;50.656;7.188;2022-12-07T16:04:35;6.63;;;3.67;;
9940;SDS011;5009;50.656;7.188;2022-12-07T16:07:01;5.40;;;3.97;;
9940;SDS011;5009;50.656;7.188;2022-12-07T16:09:26;5.90;;;4.30;;
9940;SDS011;5009;50.656;7.188;2022-12-07T16:11:52;6.60;;;4.60;;
9940;SDS011;5009;50.656;7.188;2022-12-07T16:14:18;5.97;;;4.03;;
9940;SDS011;5009;50.656;7.188;2022-12-07T16:16:43;4.63;;;4.23;;
9940;SDS011;5009;50.656;7.188;2022-12-07T16:19:09;7.00;;;5.00;;
9940;SDS011;5009;50.656;7.188;2022-12-07T16:21:35;5.03;;;4.63;;
9940;SDS011;5009;50.656;7.188;2022-12-07T16:24:01;6.57;;;4.93;;
9940;SDS011;5009;50.656;7.188;2022-12-07T16:26:27;6.60;;;4.87;;
9940;SDS011;5009;50.656;7.188;2022-12-07T16:28:53;6.27;;;4.60;;
9940;SDS011;5009;50.656;7.188;2022-12-07T16:31:21;6.60;;;4.43;;
9940;SDS011;5009;50.656;7.188;2022-12-07T16:33:48;7.60;;;5.23;;
9940;SDS011;5009;50.656;7.188;2022-12-07T16:36:15;5.03;;;4.53;;
9940;SDS011;5009;50.656;7.188;2022-12-07T16:38:42;7.47;;;5.17;;
9940;SDS011;5009;50.656;7.188;2022-12-07T16:41:08;6.87;;;4.73;;
9940;SDS011;5009;50.656;7.188;2022-12-07T16:43:34;7.90;;;5.03;;
9940;SDS011;5009;50.656;7.188;2022-12-07T16:46:00;9.20;;;5.17;;
9940;SDS011;5009;50.656;7.188;2022-12-07T16:48:26;7.53;;;5.40;;
9940;SDS011;5009;50.656;7.188;2022-12-07T16:50:52;7.93;;;5.83;;
9940;SDS011;5009;50.656;7.188;2022-12-07T16:53:18;6.53;;;5.93;;
9940;SDS011;5009;50.656;7.188;2022-12-07T16:55:45;7.13;;;6.43;;
9940;SDS011;5009;50.656;7.188;2022-12-07T16:58:12;8.33;;;6.10;;
9940;SDS011;5009;50.656;7.188;2022-12-07T17:00:39;6.40;;;5.67;;
9940;SDS011;5009;50.656;7.188;2022-12-07T17:03:06;7.70;;;6.57;;
9940;SDS011;5009;50.656;7.188;2022-12-07T17:05:32;9.30;;;8.00;;
9940;SDS011;5009;50.656;7.188;2022-12-07T17:07:58;12.53;;;11.23;;
9940;SDS011;5009;50.656;7.188;2022-12-07T17:10:24;14.63;;;12.43;;
9940;SDS011;5009;50.656;7.188;2022-12-07T17:12:50;14.43;;;11.30;;
9940;SDS011;5009;50.656;7.188;2022-12-07T17:15:16;20.53;;;16.40;;
9940;SDS011;5009;50.656;7.188;2022-12-07T17:17:45;18.60;;;15.23;;
9940;SDS011;5009;50.656;7.188;2022-12-07T17:20:22;17.43;;;14.90;;
9940;SDS011;5009;50.656;7.188;2022-12-07T17:22:50;17.27;;;15.40;;
9940;SDS011;5009;50.656;7.188;2022-12-07T17:25:16;35.27;;;27.70;;
9940;SDS011;5009;50.656;7.188;2022-12-07T17:27:42;26.73;;;23.53;;
9940;SDS011;5009;50.656;7.188;2022-12-07T17:30:09;33.03;;;28.33;;
9940;SDS011;5009;50.656;7.188;2022-12-07T17:32:35;29.40;;;26.17;;
9940;SDS011;5009;50.656;7.188;2022-12-07T17:35:01;31.20;;;27.87;;
9940;SDS011;5009;50.656;7.188;2022-12-07T17:37:27;30.03;;;23.40;;
9940;SDS011;5009;50.656;7.188;2022-12-07T17:39:52;22.17;;;18.40;;
9940;SDS011;5009;50.656;7.188;2022-12-07T17:42:22;14.03;;;10.93;;
9940;SDS011;5009;50.656;7.188;2022-12-07T17:45:04;15.67;;;11.40;;
9940;SDS011;5009;50.656;7.188;2022-12-07T17:47:32;12.77;;;10.57;;
9940;SDS011;5009;50.656;7.188;2022-12-07T17:49:57;12.10;;;10.23;;
9940;SDS011;5009;50.656;7.188;2022-12-07T17:52:23;14.90;;;9.80;;
9940;SDS011;5009;50.656;7.188;2022-12-07T17:55:07;11.37;;;8.43;;
9940;SDS011;5009;50.656;7.188;2022-12-07T17:57:33;11.90;;;9.10;;
9940;SDS011;5009;50.656;7.188;2022-12-07T17:59:58;12.27;;;9.83;;
9940;SDS011;5009;50.656;7.188;2022-12-07T18:02:24;16.83;;;12.70;;
9940;SDS011;5009;50.656;7.188;2022-12-07T18:04:50;12.80;;;10.13;;
9940;SDS011;5009;50.656;7.188;2022-12-07T18:07:16;10.97;;;9.60;;
9940;SDS011;5009;50.656;7.188;2022-12-07T18:09:42;12.80;;;9.83;;
9940;SDS011;5009;50.656;7.188;2022-12-07T18:12:08;12.73;;;9.73;;
9940;SDS011;5009;50.656;7.188;2022-12-07T18:14:33;12.90;;;10.03;;
9940;SDS011;5009;50.656;7.188;2022-12-07T18:16:59;11.00;;;9.30;;
9940;SDS011;5009;50.656;7.188;2022-12-07T18:19:25;14.00;;;11.90;;
9940;SDS011;5009;50.656;7.188;2022-12-07T18:21:50;17.23;;;15.57;;
9940;SDS011;5009;50.656;7.188;2022-12-07T18:24:16;13.30;;;12.00;;
9940;SDS011;5009;50.656;7.188;2022-12-07T18:26:42;15.13;;;11.97;;
9940;SDS011;5009;50.656;7.188;2022-12-07T18:29:12;12.10;;;10.87;;
9940;SDS011;5009;50.656;7.188;2022-12-07T18:31:39;13.23;;;9.87;;
9940;SDS011;5009;50.656;7.188;2022-12-07T18:34:05;11.43;;;10.00;;
9940;SDS011;5009;50.656;7.188;2022-12-07T18:36:36;10.40;;;9.37;;
9940;SDS011;5009;50.656;7.188;2022-12-07T18:39:05;10.97;;;9.87;;
9940;SDS011;5009;50.656;7.188;2022-12-07T18:41:31;11.23;;;9.80;;
9940;SDS011;5009;50.656;7.188;2022-12-07T18:43:57;12.87;;;11.00;;
9940;SDS011;5009;50.656;7.188;2022-12-07T18:46:22;12.97;;;11.50;;
9940;SDS011;5009;50.656;7.188;2022-12-07T18:48:48;14.07;;;11.07;;
9940;SDS011;5009;50.656;7.188;2022-12-07T18:51:17;14.57;;;11.07;;
9940;SDS011;5009;50.656;7.188;2022-12-07T18:53:44;14.17;;;11.10;;
9940;SDS011;5009;50.656;7.188;2022-12-07T18:56:16;11.90;;;10.20;;
9940;SDS011;5009;50.656;7.188;2022-12-07T18:58:47;12.53;;;11.23;;
9940;SDS011;5009;50.656;7.188;2022-12-07T19:01:33;12.47;;;11.27;;
9940;SDS011;5009;50.656;7.188;2022-12-07T19:04:00;12.70;;;11.07;;
9940;SDS011;5009;50.656;7.188;2022-12-07T19:06:26;14.23;;;11.57;;
9940;SDS011;5009;50.656;7.188;2022-12-07T19:08:52;12.23;;;10.73;;
9940;SDS011;5009;50.656;7.188;2022-12-07T19:11:36;13.80;;;10.60;;
9940;SDS011;5009;50.656;7.188;2022-12-07T19:14:15;12.67;;;10.87;;
9940;SDS011;5009;50.656;7.188;2022-12-07T19:16:43;13.30;;;10.13;;
9940;SDS011;5009;50.656;7.188;2022-12-07T19:19:09;11.83;;;10.30;;
9940;SDS011;5009;50.656;7.188;2022-12-07T19:21:35;14.30;;;8.70;;
9940;SDS011;5009;50.656;7.188;2022-12-07T19:24:04;12.10;;;9.40;;
9940;SDS011;5009;50.656;7.188;2022-12-07T19:26:31;17.97;;;11.57;;
9940;SDS011;5009;50.656;7.188;2022-12-07T19:28:56;13.13;;;10.70;;
9940;SDS011;5009;50.656;7.188;2022-12-07T19:31:22;13.17;;;10.70;;
9940;SDS011;5009;50.656;7.188;2022-12-07T19:33:48;14.63;;;10.73;;
9940;SDS011;5009;50.656;7.188;2022-12-07T19:36:13;13.40;;;12.00;;
9940;SDS011;5009;50.656;7.188;2022-12-07T19:38:39;12.50;;;11.07;;
9940;SDS011;5009;50.656;7.188;2022-12-07T19:41:05;14.37;;;10.30;;
9940;SDS011;5009;50.656;7.188;2022-12-07T19:43:55;13.13;;;11.73;;
9940;SDS011;5009;50.656;7.188;2022-12-07T19:46:21;12.20;;;10.93;;
9940;SDS011;5009;50.656;7.188;2022-12-07T19:48:46;12.43;;;10.63;;
9940;SDS011;5009;50.656;7.188;2022-12-07T19:51:12;13.80;;;10.93;;
9940;SDS011;5009;50.656;7.188;2022-12-07T19:53:37;11.57;;;9.43;;
9940;SDS011;5009;50.656;7.188;2022-12-07T19:56:03;13.20;;;11.03;;
9940;SDS011;5009;50.656;7.188;2022-12-07T19:58:28;11.70;;;10.50;;
9940;SDS011;5009;50.656;7.188;2022-12-07T20:00:54;11.90;;;10.10;;
9940;SDS011;5009;50.656;7.188;2022-12-07T20:03:20;10.93;;;9.80;;
9940;SDS011;5009;50.656;7.188;2022-12-07T20:05:45;11.50;;;10.30;;
9940;SDS011;5009;50.656;7.188;2022-12-07T20:08:11;12.23;;;10.03;;
9940;SDS011;5009;50.656;7.188;2022-12-07T20:10:39;11.63;;;10.33;;
9940;SDS011;5009;50.656;7.188;2022-12-07T20:13:05;12.77;;;10.00;;
9940;SDS011;5009;50.656;7.188;2022-12-07T20:15:51;12.23;;;10.13;;
9940;SDS011;5009;50.656;7.188;2022-12-07T20:18:17;12.10;;;10.90;;
9940;SDS011;5009;50.656;7.188;2022-12-07T20:20:51;13.97;;;11.17;;
9940;SDS011;5009;50.656;7.188;2022-12-07T20:23:23;11.40;;;10.30;;
9940;SDS011;5009;50.656;7.188;2022-12-07T20:25:51;12.30;;;9.83;;
9940;SDS011;5009;50.656;7.188;2022-12-07T20:28:17;11.63;;;10.43;;
9940;SDS011;5009;50.656;7.188;2022-12-07T20:30:49;12.27;;;10.90;;
9940;SDS011;5009;50.656;7.188;2022-12-07T20:33:16;11.03;;;9.90;;
9940;SDS011;5009;50.656;7.188;2022-12-07T20:35:43;11.33;;;10.23;;
9940;SDS011;5009;50.656;7.188;2022-12-07T20:38:09;11.27;;;10.20;;
9940;SDS011;5009;50.656;7.188;2022-12-07T20:40:35;10.53;;;9.43;;
9940;SDS011;5009;50.656;7.188;2022-12-07T20:43:01;12.33;;;10.20;;
9940;SDS011;5009;50.656;7.188;2022-12-07T20:45:27;12.07;;;10.90;;
9940;SDS011;5009;50.656;7.188;2022-12-07T20:47:53;11.17;;;10.07;;
9940;SDS011;5009;50.656;7.188;2022-12-07T20:50:19;12.27;;;10.27;;
9940;SDS011;5009;50.656;7.188;2022-12-07T20:52:45;12.33;;;11.03;;
9940;SDS011;5009;50.656;7.188;2022-12-07T20:55:10;12.67;;;11.23;;
9940;SDS011;5009;50.656;7.188;2022-12-07T20:57:36;14.30;;;12.60;;
9940;SDS011;5009;50.656;7.188;2022-12-07T21:00:02;15.37;;;13.23;;
9940;SDS011;5009;50.656;7.188;2022-12-07T21:02:31;15.90;;;14.20;;
9940;SDS011;5009;50.656;7.188;2022-12-07T21:04:57;16.90;;;15.20;;
9940;SDS011;5009;50.656;7.188;2022-12-07T21:07:22;17.17;;;15.33;;
9940;SDS011;5009;50.656;7.188;2022-12-07T21:09:48;19.17;;;15.40;;
9940;SDS011;5009;50.656;7.188;2022-12-07T21:12:15;15.57;;;13.97;;
9940;SDS011;5009;50.656;7.188;2022-12-07T21:14:40;16.57;;;14.77;;
9940;SDS011;5009;50.656;7.188;2022-12-07T21:17:07;15.67;;;13.37;;
9940;SDS011;5009;50.656;7.188;2022-12-07T21:19:32;14.43;;;13.03;;
9940;SDS011;5009;50.656;7.188;2022-12-07T21:21:58;15.83;;;13.57;;
9940;SDS011;5009;50.656;7.188;2022-12-07T21:24:23;13.97;;;11.40;;
9940;SDS011;5009;50.656;7.188;2022-12-07T21:26:49;14.13;;;12.80;;
9940;SDS011;5009;50.656;7.188;2022-12-07T21:29:15;17.50;;;13.40;;
9940;SDS011;5009;50.656;7.188;2022-12-07T21:31:40;14.87;;;13.37;;
9940;SDS011;5009;50.656;7.188;2022-12-07T21:34:06;15.00;;;12.90;;
9940;SDS011;5009;50.656;7.188;2022-12-07T21:36:32;16.33;;;13.40;;
9940;SDS011;5009;50.656;7.188;2022-12-07T21:38:58;16.60;;;13.27;;
9940;SDS011;5009;50.656;7.188;2022-12-07T21:41:26;14.53;;;13.13;;
9940;SDS011;5009;50.656;7.188;2022-12-07T21:43:53;17.83;;;13.43;;
9940;SDS011;5009;50.656;7.188;2022-12-07T21:46:20;14.77;;;13.17;;
9940;SDS011;5009;50.656;7.188;2022-12-07T21:48:51;19.07;;;15.20;;
9940;SDS011;5009;50.656;7.188;2022-12-07T21:51:18;15.83;;;14.13;;
9940;SDS011;5009;50.656;7.188;2022-12-07T21:53:45;13.03;;;11.63;;
9940;SDS011;5009;50.656;7.188;2022-12-07T21:56:14;12.60;;;11.23;;
9940;SDS011;5009;50.656;7.188;2022-12-07T21:58:42;12.40;;;11.10;;
